Time;durP1;ratioP1;P1;durP2;ratioP2;P2;SDS_P1;SDS_P2;PMS_P1;PMS_P2;Temp;Humidity;BMP_temperature;BMP_pressure;BME280_temperature;BME280_humidity;BME280_pressure;Samples;Min_cycle;Max_cycle;Signal;HPM_P1;HPM_P2
2021/11/16 00:02:55;;;;;;;6.88;2.17;;;;;;;13.74;100.00;100747.31;5058497;28;20035;-49
2021/11/16 00:05:58;;;;;;;11.57;2.70;;;;;;;13.73;100.00;100747.81;5058586;28;20089;-49
2021/11/16 00:09:03;;;;;;;6.25;3.00;;;;;;;13.72;100.00;100746.25;5059765;28;20058;-49
2021/11/16 00:12:07;;;;;;;2.60;2.05;;;;;;;13.76;100.00;100744.03;5057956;28;20035;-50
2021/11/16 00:15:11;;;;;;;5.68;3.15;;;;;;;13.75;100.00;100743.28;5059440;28;20051;-49
2021/11/16 00:18:17;;;;;;;15.10;2.38;;;;;;;13.74;100.00;100743.75;5060422;28;20434;-49
2021/11/16 00:21:20;;;;;;;4.35;2.28;;;;;;;13.74;100.00;100746.53;5057669;28;20032;-49
2021/11/16 00:25:06;;;;;;;6.32;2.20;;;;;;;13.77;100.00;100740.78;5058659;28;20039;-49
2021/11/16 00:27:48;;;;;;;13.05;2.00;;;;;;;13.79;100.00;100741.06;5059173;28;20043;-49
2021/11/16 00:30:53;;;;;;;12.70;3.20;;;;;;;13.81;100.00;100743.38;5057569;28;20519;-49
2021/11/16 00:33:57;;;;;;;9.45;2.80;;;;;;;13.80;100.00;100741.81;5056111;28;20108;-49
2021/11/16 00:37:00;;;;;;;8.77;2.28;;;;;;;13.87;100.00;100733.06;5058115;28;20040;-49
2021/11/16 00:40:08;;;;;;;9.32;1.98;;;;;;;13.95;100.00;100734.25;5056742;28;20089;-49
2021/11/16 00:43:12;;;;;;;19.25;3.00;;;;;;;13.89;100.00;100734.16;5058453;28;20090;-49
2021/11/16 00:46:15;;;;;;;5.45;1.90;;;;;;;13.87;100.00;100722.66;5059466;28;20486;-49
2021/11/16 00:49:19;;;;;;;7.65;2.03;;;;;;;13.86;100.00;100728.75;5057651;28;20711;-49
2021/11/16 00:52:22;;;;;;;9.65;3.03;;;;;;;13.75;100.00;100731.31;5056611;28;20046;-49
2021/11/16 00:55:25;;;;;;;10.98;2.03;;;;;;;13.85;100.00;100718.78;5092621;28;20051;-49
2021/11/16 00:58:28;;;;;;;4.80;2.30;;;;;;;13.27;100.00;100720.06;5094464;28;20047;-49
2021/11/16 01:01:31;;;;;;;8.60;2.45;;;;;;;13.64;100.00;100720.63;5094571;28;20446;-49
2021/11/16 01:04:34;;;;;;;4.97;1.98;;;;;;;13.69;100.00;100712.34;5094321;28;20039;-49
2021/11/16 01:07:36;;;;;;;13.63;2.70;;;;;;;13.02;100.00;100703.63;5094444;28;20086;-49
2021/11/16 01:10:41;;;;;;;17.75;3.88;;;;;;;13.33;100.00;100704.16;5093930;28;20035;-49
2021/11/16 01:13:44;;;;;;;13.82;2.13;;;;;;;13.55;100.00;100695.50;5094157;28;20043;-49
2021/11/16 01:16:47;;;;;;;6.30;2.70;;;;;;;13.58;100.00;100695.31;5093668;28;20506;-49
2021/11/16 01:19:52;;;;;;;6.65;2.17;;;;;;;13.59;100.00;100685.69;5093475;28;20062;-49
2021/11/16 01:22:57;;;;;;;8.27;3.35;;;;;;;13.67;100.00;100686.09;5093864;28;20039;-49
2021/11/16 01:26:01;;;;;;;7.63;2.50;;;;;;;13.89;100.00;100691.38;5093208;28;20079;-49
2021/11/16 01:29:06;;;;;;;13.35;1.98;;;;;;;13.96;100.00;100691.00;5093803;28;20490;-49
2021/11/16 01:32:24;;;;;;;7.63;1.73;;;;;;;13.93;100.00;100684.34;5093867;28;20544;-49
2021/11/16 01:35:27;;;;;;;8.35;2.28;;;;;;;13.98;100.00;100683.69;5093849;28;20081;-49
2021/11/16 01:38:29;;;;;;;20.73;2.65;;;;;;;13.98;100.00;100680.88;5093785;28;20050;-49
2021/11/16 01:41:32;;;;;;;7.97;2.85;;;;;;;14.02;100.00;100686.28;5093820;28;20047;-49
2021/11/16 01:44:36;;;;;;;11.38;2.65;;;;;;;14.00;100.00;100686.78;5093709;28;20115;-49
2021/11/16 01:47:39;;;;;;;11.57;3.03;;;;;;;13.67;100.00;100680.47;5093324;28;20038;-49
2021/11/16 01:50:44;;;;;;;5.75;1.65;;;;;;;13.90;100.00;100681.72;5093742;28;20046;-49
2021/11/16 01:53:53;;;;;;;12.68;2.85;;;;;;;14.08;100.00;100673.16;5093198;28;20411;-49
2021/11/16 01:56:56;;;;;;;3.70;2.17;;;;;;;14.06;100.00;100672.88;5093381;28;20062;-49
2021/11/16 01:59:59;;;;;;;12.63;2.50;;;;;;;14.04;100.00;100670.56;5092854;28;20075;-49
2021/11/16 02:03:03;;;;;;;6.70;3.17;;;;;;;14.02;100.00;100672.28;5093331;28;20093;-49
2021/11/16 02:06:37;;;;;;;7.88;1.63;;;;;;;13.99;100.00;100664.88;5093173;28;20380;-49
2021/11/16 02:09:42;;;;;;;9.60;2.22;;;;;;;14.19;100.00;100664.97;5093250;28;20388;-49
2021/11/16 02:12:45;;;;;;;9.45;2.80;;;;;;;14.17;100.00;100657.06;5072699;28;20047;-49
2021/11/16 02:15:49;;;;;;;7.03;1.35;;;;;;;14.17;100.00;100656.28;5072694;28;20036;-49
2021/11/16 02:18:53;;;;;;;3.22;1.00;;;;;;;14.12;100.00;100671.72;5072972;28;20055;-50
2021/11/16 02:21:57;;;;;;;5.60;2.15;;;;;;;14.08;100.00;100664.75;5072804;28;20092;-49
2021/11/16 02:25:00;;;;;;;12.07;3.30;;;;;;;14.04;100.00;100655.78;5073036;28;20047;-49
2021/11/16 02:28:04;;;;;;;3.95;1.67;;;;;;;13.98;100.00;100655.69;5072712;28;20039;-49
2021/11/16 02:31:07;;;;;;;4.57;1.77;;;;;;;14.05;100.00;100662.94;5072889;28;20094;-49
2021/11/16 02:34:10;;;;;;;14.05;3.08;;;;;;;14.12;100.00;100652.13;5072777;28;20128;-49
2021/11/16 02:37:13;;;;;;;17.20;2.47;;;;;;;14.12;100.00;100656.97;5073418;28;20440;-49
2021/11/16 02:40:16;;;;;;;10.43;2.97;;;;;;;14.11;100.00;100655.41;5072395;28;20098;-49
2021/11/16 02:43:21;;;;;;;4.18;1.85;;;;;;;14.17;100.00;100650.69;5072889;28;20073;-49
2021/11/16 02:46:24;;;;;;;6.43;1.42;;;;;;;14.01;100.00;100651.16;5072228;28;20067;-49
2021/11/16 02:49:30;;;;;;;5.22;1.75;;;;;;;13.98;100.00;100650.09;5072724;28;20074;-49
2021/11/16 02:52:34;;;;;;;7.80;1.35;;;;;;;13.93;100.00;100635.97;5083234;28;20044;-49
2021/11/16 02:55:38;;;;;;;3.90;2.10;;;;;;;13.91;100.00;100635.66;5071937;28;20071;-49
2021/11/16 02:58:42;;;;;;;6.43;2.08;;;;;;;13.87;100.00;100632.28;5071953;28;20082;-49
2021/11/16 03:01:45;;;;;;;14.02;2.53;;;;;;;13.89;100.00;100629.78;5072442;28;20105;-49
2021/11/16 03:04:48;;;;;;;19.58;5.43;;;;;;;13.84;100.00;100627.66;5071803;28;20044;-49
2021/11/16 03:07:56;;;;;;;9.50;2.88;;;;;;;13.84;100.00;100620.00;5072193;28;20106;-49
2021/11/16 03:11:05;;;;;;;8.60;1.85;;;;;;;13.80;100.00;100615.84;5078139;28;20228;-49
2021/11/16 03:14:08;;;;;;;6.55;1.38;;;;;;;13.83;100.00;100614.91;5092831;28;20032;-49
2021/11/16 03:17:11;;;;;;;8.45;1.73;;;;;;;13.84;100.00;100610.84;5092304;28;20135;-49
2021/11/16 03:20:16;;;;;;;5.53;1.52;;;;;;;13.78;100.00;100607.16;5092590;28;20047;-49
2021/11/16 03:23:22;;;;;;;2.58;1.05;;;;;;;13.79;100.00;100605.91;5092883;28;20418;-49
2021/11/16 03:26:27;;;;;;;2.25;1.85;;;;;;;13.76;100.00;100598.47;5095239;28;20108;-49
2021/11/16 03:29:31;;;;;;;5.03;2.50;;;;;;;13.73;100.00;100582.63;5095635;28;20120;-49
2021/11/16 03:32:35;;;;;;;5.95;1.90;;;;;;;13.66;100.00;100578.94;5095862;28;20034;-49
2021/11/16 03:35:40;;;;;;;19.27;3.17;;;;;;;13.60;100.00;100580.84;5096084;28;20043;-49
2021/11/16 03:38:43;;;;;;;5.15;1.85;;;;;;;13.64;100.00;100584.25;5095595;28;20092;-49
2021/11/16 03:41:46;;;;;;;7.22;1.23;;;;;;;13.57;100.00;100581.84;5095949;28;20063;-50
2021/11/16 03:44:49;;;;;;;7.28;1.92;;;;;;;13.59;100.00;100587.72;5095802;28;20120;-49
2021/11/16 03:47:54;;;;;;;11.40;2.35;;;;;;;13.56;100.00;100585.88;5095544;28;20384;-49
2021/11/16 03:50:57;;;;;;;5.47;1.95;;;;;;;13.51;100.00;100591.38;5086771;28;20089;-49
2021/11/16 03:54:00;;;;;;;4.20;1.52;;;;;;;13.49;100.00;100583.44;5075244;28;20039;-49
2021/11/16 03:57:03;;;;;;;10.15;1.88;;;;;;;13.43;100.00;100588.16;5075758;28;20048;-49
2021/11/16 04:00:10;;;;;;;7.07;1.48;;;;;;;13.43;100.00;100574.16;5074972;28;20070;-49
2021/11/16 04:03:15;;;;;;;3.55;1.42;;;;;;;13.38;100.00;100569.22;5075492;28;20048;-49
2021/11/16 04:06:19;;;;;;;4.10;1.05;;;;;;;13.36;100.00;100577.31;5075492;28;20043;-49
2021/11/16 04:09:22;;;;;;;14.30;2.22;;;;;;;13.37;100.00;100567.69;5075310;28;20452;-49
2021/11/16 04:12:25;;;;;;;4.72;1.05;;;;;;;13.32;100.00;100559.94;5093514;28;20128;-49
2021/11/16 04:15:30;;;;;;;6.35;1.83;;;;;;;13.37;100.00;100561.31;5095533;28;20089;-49
2021/11/16 04:18:33;;;;;;;22.50;2.38;;;;;;;13.34;100.00;100557.44;5095268;28;20093;-49
2021/11/16 04:21:36;;;;;;;7.15;1.88;;;;;;;13.32;100.00;100556.38;5095115;28;20039;-49
2021/11/16 04:24:39;;;;;;;3.08;1.38;;;;;;;13.29;100.00;100549.72;5095109;28;20046;-49
2021/11/16 04:27:43;;;;;;;3.65;1.10;;;;;;;13.29;100.00;100555.31;5095112;28;20093;-49
2021/11/16 04:30:47;;;;;;;6.70;2.17;;;;;;;13.25;100.00;100551.94;5095235;28;20083;-49
2021/11/16 04:33:50;;;;;;;8.98;2.38;;;;;;;13.18;100.00;100543.88;5094770;28;20042;-49
2021/11/16 04:36:53;;;;;;;2.17;1.08;;;;;;;13.18;100.00;100548.69;5094877;28;20043;-49
2021/11/16 04:39:57;;;;;;;13.00;3.10;;;;;;;13.27;100.00;100546.63;5094540;28;20411;-49
2021/11/16 04:43:03;;;;;;;9.38;2.05;;;;;;;13.26;100.00;100545.06;5094754;28;20089;-49
2021/11/16 04:46:08;;;;;;;3.65;1.13;;;;;;;13.26;100.00;100545.06;5094790;28;20508;-49
2021/11/16 05:02:35;;;;;;;7.05;1.48;;;;;;;13.34;100.00;100551.84;5095110;28;20400;-49
2021/11/16 05:05:38;;;;;;;4.45;1.65;;;;;;;13.32;100.00;100553.59;5093951;28;20053;-49
2021/11/16 05:08:44;;;;;;;3.13;1.13;;;;;;;13.33;100.00;100555.91;5094583;28;20043;-49
2021/11/16 05:11:46;;;;;;;4.03;0.82;;;;;;;13.38;100.00;100546.81;5081153;28;20043;-49
2021/11/16 05:14:50;;;;;;;6.10;1.88;;;;;;;13.46;100.00;100548.03;5073812;28;20039;-50
2021/11/16 05:17:54;;;;;;;5.85;1.77;;;;;;;13.45;100.00;100540.88;5073617;28;20097;-49
2021/11/16 05:20:57;;;;;;;7.68;1.50;;;;;;;13.43;100.00;100537.78;5073962;28;20043;-49
2021/11/16 05:24:01;;;;;;;0.93;0.75;;;;;;;13.46;100.00;100539.63;5073498;28;20185;-49
2021/11/16 05:27:05;;;;;;;7.90;2.05;;;;;;;13.46;100.00;100541.66;5073954;28;20515;-49
2021/11/16 05:30:11;;;;;;;8.43;1.35;;;;;;;13.49;100.00;100547.06;5073336;28;20538;-49
2021/11/16 05:33:15;;;;;;;4.32;1.58;;;;;;;13.56;100.00;100538.28;5074001;28;20043;-49
2021/11/16 05:36:18;;;;;;;14.07;1.30;;;;;;;13.54;100.00;100535.19;5073291;28;20052;-49
2021/11/16 05:39:21;;;;;;;2.97;1.08;;;;;;;13.54;100.00;100537.22;5073474;28;20403;-49
2021/11/16 05:42:24;;;;;;;6.57;1.77;;;;;;;13.57;100.00;100541.88;5073507;28;20536;-49
2021/11/16 05:45:27;;;;;;;14.63;3.15;;;;;;;13.55;100.00;100528.38;5073920;28;20494;-50
2021/11/16 05:48:36;;;;;;;9.65;1.75;;;;;;;13.59;100.00;100533.78;5072476;28;20163;-49
2021/11/16 05:51:39;;;;;;;4.35;0.88;;;;;;;13.62;100.00;100527.22;5073313;28;20059;-50
2021/11/16 05:54:43;;;;;;;7.00;1.88;;;;;;;13.61;100.00;100525.66;5072926;28;20058;-50
2021/11/16 05:57:49;;;;;;;8.02;1.90;;;;;;;13.63;100.00;100529.53;5073278;28;20043;-50
2021/11/16 06:00:52;;;;;;;5.63;1.80;;;;;;;13.62;100.00;100527.97;5073161;28;20074;-50
2021/11/16 06:03:55;;;;;;;11.48;2.58;;;;;;;13.62;100.00;100525.16;5072844;28;20120;-50
2021/11/16 06:07:00;;;;;;;11.73;1.98;;;;;;;13.61;100.00;100515.25;5073212;28;20046;-50
2021/11/16 06:10:03;;;;;;;16.80;1.77;;;;;;;13.59;100.00;100526.16;5072716;28;20043;-51
2021/11/16 06:13:06;;;;;;;8.65;2.13;;;;;;;13.56;100.00;100518.69;5073159;28;20131;-50
2021/11/16 06:16:09;;;;;;;2.60;1.38;;;;;;;13.62;100.00;100511.19;5072956;28;20190;-50
2021/11/16 06:19:16;;;;;;;18.88;2.03;;;;;;;13.65;100.00;100501.06;5073033;28;20534;-51
2021/11/16 06:22:19;;;;;;;3.95;2.00;;;;;;;13.72;100.00;100513.91;5072929;28;20046;-51
2021/11/16 06:25:22;;;;;;;5.93;1.67;;;;;;;13.73;100.00;100504.25;5072803;28;20454;-51
2021/11/16 06:28:26;;;;;;;10.80;1.15;;;;;;;13.74;100.00;100503.78;5083897;28;20482;-51
2021/11/16 06:31:30;;;;;;;2.35;1.00;;;;;;;13.66;100.00;100503.38;5072931;28;20098;-51
2021/11/16 06:34:33;;;;;;;4.63;1.52;;;;;;;13.63;100.00;100501.53;5072390;28;20043;-51
2021/11/16 06:37:36;;;;;;;8.70;2.13;;;;;;;13.59;100.00;100498.16;5072793;28;20131;-51
2021/11/16 06:40:41;;;;;;;11.85;1.77;;;;;;;13.64;100.00;100482.72;5072275;28;20106;-51
2021/11/16 06:43:43;;;;;;;2.50;0.98;;;;;;;13.59;100.00;100484.16;5073032;28;20051;-51
2021/11/16 06:46:47;;;;;;;5.55;2.20;;;;;;;13.60;100.00;100473.72;5072347;28;20043;-51
2021/11/16 06:49:51;;;;;;;6.18;1.67;;;;;;;13.56;100.00;100468.34;5072497;28;20047;-51
2021/11/16 06:52:54;;;;;;;2.70;1.15;;;;;;;13.51;100.00;100460.59;5072462;28;20044;-51
2021/11/16 06:55:58;;;;;;;7.25;2.47;;;;;;;13.50;100.00;100467.47;5079798;28;20564;-51
2021/11/16 06:59:01;;;;;;;13.45;2.95;;;;;;;13.47;100.00;100473.25;5071906;28;20039;-51
2021/11/16 07:02:05;;;;;;;4.00;1.05;;;;;;;13.50;100.00;100475.84;5075736;28;20093;-51
2021/11/16 07:05:10;;;;;;;9.98;1.42;;;;;;;13.48;100.00;100478.38;5075876;28;20063;-51
2021/11/16 07:08:26;;;;;;;11.63;2.08;;;;;;;13.42;100.00;100463.50;5076228;28;20051;-52
2021/11/16 07:11:29;;;;;;;6.97;1.73;;;;;;;13.38;100.00;100457.28;5086569;28;20089;-51
2021/11/16 07:14:37;;;;;;;13.40;2.65;;;;;;;13.36;100.00;100457.00;5075774;28;20051;-52
2021/11/16 07:17:40;;;;;;;5.88;1.48;;;;;;;13.38;100.00;100456.53;5076213;28;20393;-52
2021/11/16 07:20:43;;;;;;;1.98;0.90;;;;;;;13.34;100.00;100453.91;5076034;28;20491;-51
2021/11/16 07:24:05;;;;;;;11.13;2.08;;;;;;;13.36;100.00;100454.22;5075659;28;20048;-51
2021/11/16 07:27:09;;;;;;;5.28;1.13;;;;;;;13.39;100.00;100458.84;5075710;28;20048;-51
2021/11/16 07:30:19;;;;;;;1.50;1.38;;;;;;;13.39;100.00;100453.25;5075427;28;20042;-52
2021/11/16 07:33:23;;;;;;;2.22;1.35;;;;;;;13.45;100.00;100456.94;5075954;28;20044;-52
2021/11/16 07:36:26;;;;;;;6.40;1.40;;;;;;;13.42;100.00;100446.72;5075354;28;20098;-51
2021/11/16 07:39:42;;;;;;;9.05;1.40;;;;;;;13.34;100.00;100442.72;5075362;28;20136;-52
2021/11/16 07:42:50;;;;;;;3.08;0.73;;;;;;;13.47;100.00;100439.69;5075457;28;20181;-51
2021/11/16 07:45:54;;;;;;;8.35;2.10;;;;;;;13.47;100.00;100437.63;5074644;28;20098;-51
2021/11/16 07:49:02;;;;;;;3.90;1.17;;;;;;;13.45;100.00;100439.38;5075228;28;20486;-51
2021/11/16 07:52:06;;;;;;;4.53;0.73;;;;;;;13.47;100.00;100442.47;5075080;28;20091;-51
2021/11/16 07:55:21;;;;;;;5.68;1.35;;;;;;;13.40;100.00;100442.84;5074823;28;20569;-52
2021/11/16 07:58:33;;;;;;;6.20;1.88;;;;;;;13.50;100.00;100441.50;5074747;28;20047;-51
2021/11/16 08:04:46;;;;;;;4.20;2.05;;;;;;;13.55;100.00;100444.41;5074710;28;20047;-52
2021/11/16 08:12:02;;;;;;;2.58;1.33;;;;;;;13.56;100.00;100439.56;5065179;28;20435;-51
2021/11/16 08:15:11;;;;;;;11.45;1.92;;;;;;;13.57;100.00;100441.91;5074889;28;20093;-51
2021/11/16 08:18:15;;;;;;;6.63;1.63;;;;;;;13.60;100.00;100452.13;5074697;28;20135;-51
2021/11/16 08:21:18;;;;;;;11.80;2.75;;;;;;;13.60;100.00;100451.34;5075105;28;20047;-51
2021/11/16 08:24:24;;;;;;;4.07;1.70;;;;;;;13.71;100.00;100456.38;5074887;28;20148;-51
2021/11/16 08:27:37;;;;;;;8.80;2.97;;;;;;;13.71;100.00;100451.53;5074724;28;20495;-51
2021/11/16 08:30:40;;;;;;;9.63;1.92;;;;;;;13.65;100.00;100443.06;5074319;28;20039;-51
2021/11/16 08:33:45;;;;;;;2.00;0.85;;;;;;;13.71;100.00;100448.00;5074566;28;20409;-51
2021/11/16 08:36:51;;;;;;;10.07;2.35;;;;;;;13.75;100.00;100443.75;5074315;28;20057;-51
2021/11/16 08:39:57;;;;;;;3.25;1.20;;;;;;;13.73;100.00;100439.88;5074280;28;20507;-51
2021/11/16 08:43:14;;;;;;;9.40;1.13;;;;;;;13.81;100.00;100438.22;5074253;28;20411;-51
2021/11/16 08:46:30;;;;;;;7.30;2.60;;;;;;;13.91;100.00;100439.66;5074694;28;20052;-51
2021/11/16 08:49:33;;;;;;;7.78;1.08;;;;;;;14.00;100.00;100433.94;5074258;28;20456;-51
2021/11/16 08:52:37;;;;;;;5.28;1.10;;;;;;;14.05;100.00;100431.25;5073818;28;20169;-51
2021/11/16 08:55:42;;;;;;;7.88;1.80;;;;;;;14.07;100.00;100431.53;5073540;28;20063;-51
2021/11/16 08:58:45;;;;;;;20.00;3.15;;;;;;;14.06;100.00;100426.41;5073266;28;20113;-55
2021/11/16 09:01:58;;;;;;;3.83;1.05;;;;;;;14.11;100.00;100422.94;5073543;28;20078;-51
2021/11/16 09:05:09;;;;;;;3.67;1.05;;;;;;;14.22;100.00;100412.66;5073382;28;20461;-51
2021/11/16 09:08:23;;;;;;;5.07;0.82;;;;;;;14.25;100.00;100408.88;5074130;28;20050;-51
2021/11/16 09:11:26;;;;;;;3.10;1.48;;;;;;;14.36;100.00;100405.50;5077854;28;20117;-51
2021/11/16 09:14:31;;;;;;;9.95;2.00;;;;;;;14.38;100.00;100408.56;5079529;28;20743;-51
2021/11/16 09:17:36;;;;;;;11.65;1.92;;;;;;;14.41;100.00;100404.81;5076807;28;20478;-51
2021/11/16 09:20:40;;;;;;;9.52;1.92;;;;;;;14.50;100.00;100404.69;5073490;28;20506;-51
2021/11/16 09:23:50;;;;;;;6.93;2.83;;;;;;;14.19;100.00;100412.84;5071230;28;20047;-51
2021/11/16 09:26:59;;;;;;;7.38;1.77;;;;;;;14.36;100.00;100408.28;5072992;28;20043;-51
2021/11/16 09:30:03;;;;;;;2.92;0.55;;;;;;;14.57;100.00;100411.91;5072992;28;20511;-51
2021/11/16 09:33:16;;;;;;;18.65;1.77;;;;;;;14.65;100.00;100413.81;5073448;28;20047;-51
2021/11/16 09:36:33;;;;;;;7.00;1.42;;;;;;;14.66;100.00;100406.16;5073409;28;20101;-51
2021/11/16 09:39:39;;;;;;;2.10;1.00;;;;;;;14.70;100.00;100404.69;5073152;28;20097;-51
2021/11/16 09:42:46;;;;;;;7.97;1.20;;;;;;;14.75;100.00;100406.78;5073326;28;20039;-51
2021/11/16 09:45:50;;;;;;;4.00;2.28;;;;;;;14.75;100.00;100403.97;5073139;28;20043;-51
2021/11/16 09:49:03;;;;;;;6.35;1.63;;;;;;;14.71;100.00;100392.22;5072936;28;20507;-51
2021/11/16 09:52:08;;;;;;;5.05;0.68;;;;;;;14.75;100.00;100386.41;5072795;28;20066;-51
2021/11/16 09:55:21;;;;;;;5.20;1.08;;;;;;;14.70;100.00;100390.69;5072623;28;20185;-51
2021/11/16 09:58:26;;;;;;;5.40;1.33;;;;;;;14.72;100.00;100378.97;5072705;28;20051;-51
2021/11/16 10:01:38;;;;;;;1.42;0.65;;;;;;;14.74;100.00;100382.81;5073108;28;20039;-51
2021/11/16 10:04:48;;;;;;;1.45;0.57;;;;;;;14.67;100.00;100380.44;5072345;28;20399;-51
2021/11/16 10:08:01;;;;;;;12.88;1.73;;;;;;;14.66;100.00;100376.06;5072935;28;20128;-51
2021/11/16 10:11:04;;;;;;;5.90;0.75;;;;;;;14.64;100.00;100381.41;5079492;28;20088;-51
2021/11/16 10:14:10;;;;;;;6.78;1.05;;;;;;;14.53;100.00;100384.06;5072779;28;20043;-51
2021/11/16 10:17:13;;;;;;;1.95;0.55;;;;;;;14.43;100.00;100379.88;5072175;28;20101;-52
2021/11/16 10:20:20;;;;;;;5.55;0.95;;;;;;;14.35;100.00;100378.75;5072344;28;20040;-52
2021/11/16 10:23:29;;;;;;;11.75;1.33;;;;;;;14.34;100.00;100380.00;5072425;28;20503;-52
2021/11/16 10:26:33;;;;;;;6.47;1.98;;;;;;;14.37;100.00;100368.59;5071890;28;20047;-52
2021/11/16 10:29:37;;;;;;;17.08;2.28;;;;;;;14.39;100.00;100373.69;5071823;28;20043;-53
2021/11/16 10:32:43;;;;;;;3.95;2.13;;;;;;;14.46;100.00;100358.50;5072636;28;20039;-54
2021/11/16 10:35:59;;;;;;;8.13;1.38;;;;;;;14.49;100.00;100347.06;5072195;28;20507;-54
2021/11/16 10:39:03;;;;;;;14.40;2.25;;;;;;;14.48;100.00;100350.38;5072321;28;20063;-54
2021/11/16 10:42:16;;;;;;;8.50;1.58;;;;;;;14.49;100.00;100341.47;5072441;28;20050;-55
2021/11/16 10:45:21;;;;;;;7.60;1.15;;;;;;;14.55;100.00;100350.75;5072611;28;20503;-55
2021/11/16 10:48:25;;;;;;;1.50;1.17;;;;;;;14.51;100.00;100343.81;5072325;28;20503;-56
2021/11/16 10:51:30;;;;;;;2.58;1.38;;;;;;;14.50;100.00;100337.41;5072334;28;20059;-56
2021/11/16 10:54:53;;;;;;;10.48;1.30;;;;;;;14.47;100.00;100329.22;5072363;28;20120;-57
2021/11/16 10:58:04;;;;;;;5.45;1.20;;;;;;;14.54;100.00;100328.78;5072174;28;20121;-57
2021/11/16 11:01:12;;;;;;;5.10;0.80;;;;;;;14.56;100.00;100317.84;5072059;28;20055;-57
2021/11/16 11:04:18;;;;;;;3.90;0.95;;;;;;;14.59;100.00;100306.44;5072261;28;20094;-57
2021/11/16 11:07:26;;;;;;;5.45;1.92;;;;;;;14.60;100.00;100301.59;5072465;28;20051;-57
2021/11/16 11:10:47;;;;;;;3.22;1.17;;;;;;;14.67;100.00;100303.97;5074500;28;20120;-57
2021/11/16 11:14:07;;;;;;;8.77;1.40;;;;;;;14.67;100.00;100301.16;5072815;28;20071;-57
2021/11/16 11:17:11;;;;;;;1.77;0.85;;;;;;;14.66;100.00;100294.78;5072003;28;20047;-57
2021/11/16 11:20:20;;;;;;;2.75;0.93;;;;;;;14.67;100.00;100293.53;5072373;28;20431;-57
2021/11/16 11:23:33;;;;;;;9.75;1.98;;;;;;;14.60;100.00;100282.75;5071912;28;20404;-57
2021/11/16 11:26:40;;;;;;;2.85;1.02;;;;;;;14.61;100.00;100275.88;5072300;28;20043;-57
2021/11/16 11:29:59;;;;;;;18.20;2.50;;;;;;;14.62;100.00;100271.81;5071335;28;20515;-56
2021/11/16 11:33:01;;;;;;;6.82;1.45;;;;;;;14.69;100.00;100270.59;5071723;28;20052;-57
2021/11/16 11:36:26;;;;;;;5.90;1.95;;;;;;;14.82;100.00;100268.97;5072115;28;20036;-56
2021/11/16 11:39:31;;;;;;;7.47;2.38;;;;;;;14.82;100.00;100273.78;5071517;28;20055;-56
2021/11/16 11:42:40;;;;;;;8.02;1.80;;;;;;;14.90;100.00;100264.44;5071940;28;20063;-56
2021/11/16 11:45:46;;;;;;;6.70;1.77;;;;;;;14.99;100.00;100269.13;5071517;28;20090;-56
2021/11/16 11:48:51;;;;;;;5.18;1.55;;;;;;;14.94;100.00;100265.00;5075253;28;20578;-56
2021/11/16 11:51:58;;;;;;;11.63;2.13;;;;;;;14.94;100.00;100269.84;5074982;28;20040;-56
2021/11/16 11:55:01;;;;;;;12.18;2.13;;;;;;;14.88;100.00;100266.97;5075309;28;20043;-56
2021/11/16 11:58:05;;;;;;;8.77;1.73;;;;;;;14.87;100.00;100268.25;5075317;28;20051;-56
2021/11/16 12:01:15;;;;;;;4.97;1.95;;;;;;;14.85;100.00;100268.00;5075546;28;20046;-55
2021/11/16 12:04:19;;;;;;;7.82;1.83;;;;;;;14.84;100.00;100260.81;5074839;28;20043;-56
2021/11/16 12:07:23;;;;;;;10.23;2.75;;;;;;;14.82;100.00;100257.75;5075457;28;20124;-56
2021/11/16 12:10:26;;;;;;;6.47;2.17;;;;;;;14.80;100.00;100254.69;5076645;28;20074;-56
2021/11/16 12:13:33;;;;;;;4.90;3.15;;;;;;;14.76;100.00;100248.53;5081764;28;20127;-57
2021/11/16 12:17:03;;;;;;;7.63;2.85;;;;;;;14.74;100.00;100239.06;5074858;28;20086;-57
2021/11/16 12:20:06;;;;;;;6.07;2.72;;;;;;;14.71;100.00;100240.81;5074619;28;20105;-57
2021/11/16 12:23:18;;;;;;;8.40;2.45;;;;;;;14.72;100.00;100236.75;5074436;28;20063;-59
2021/11/16 12:26:21;;;;;;;11.35;2.65;;;;;;;14.73;100.00;100238.28;5074425;28;20071;-59
2021/11/16 12:29:30;;;;;;;9.90;2.17;;;;;;;14.69;100.00;100231.34;5074335;28;20062;-59
2021/11/16 12:32:35;;;;;;;8.25;2.47;;;;;;;14.74;100.00;100231.44;5074332;28;20047;-59
2021/11/16 12:35:47;;;;;;;6.05;1.73;;;;;;;14.79;100.00;100232.75;5074595;28;20047;-60
2021/11/16 12:38:50;;;;;;;8.32;1.52;;;;;;;14.65;100.00;100237.19;5074495;28;20048;-58
2021/11/16 12:42:18;;;;;;;2.70;1.75;;;;;;;14.66;100.00;100249.94;5074099;28;20051;-58
2021/11/16 12:45:46;;;;;;;2.00;1.25;;;;;;;14.56;100.00;100245.75;5074408;28;20051;-57
2021/11/16 12:48:53;;;;;;;1.10;0.43;;;;;;;14.56;100.00;100251.38;5074249;28;20040;-56
2021/11/16 12:51:58;;;;;;;3.95;1.23;;;;;;;14.55;100.00;100238.63;5074087;28;20455;-56
2021/11/16 12:55:32;;;;;;;1.70;1.00;;;;;;;14.54;100.00;100236.28;5073981;28;20424;-56
2021/11/16 12:58:54;;;;;;;2.58;1.02;;;;;;;14.66;100.00;100235.91;5089492;28;20519;-56
2021/11/16 13:02:06;;;;;;;1.45;1.02;;;;;;;14.78;100.00;100225.59;5082856;28;20051;-56
2021/11/16 13:05:11;;;;;;;2.80;1.33;;;;;;;14.81;100.00;100227.41;5073281;28;20040;-55
2021/11/16 13:08:27;;;;;;;2.28;0.82;;;;;;;14.84;100.00;100215.97;5073458;28;20047;-55
2021/11/16 13:11:54;;;;;;;0.93;0.43;;;;;;;14.80;100.00;100206.22;5083401;28;20085;-55
2021/11/16 13:14:57;;;;;;;2.30;0.80;;;;;;;14.81;100.00;100205.72;5073332;28;20048;-55
2021/11/16 13:18:11;;;;;;;1.48;0.52;;;;;;;14.75;100.00;100192.94;5083694;28;20530;-55
2021/11/16 13:21:19;;;;;;;1.08;0.50;;;;;;;14.81;100.00;100186.09;5080734;28;20093;-55
2021/11/16 13:24:38;;;;;;;3.08;0.98;;;;;;;14.91;100.00;100172.69;5075882;28;20055;-54
2021/11/16 13:27:54;;;;;;;4.82;1.27;;;;;;;14.94;100.00;100169.63;5084066;28;20407;-54
2021/11/16 13:31:14;;;;;;;36.78;5.57;;;;;;;15.01;100.00;100169.19;5087932;28;20044;-55
2021/11/16 13:34:39;;;;;;;26.30;5.95;;;;;;;14.96;100.00;100169.16;5073061;28;20102;-54
2021/11/16 13:37:51;;;;;;;16.40;5.45;;;;;;;14.90;100.00;100157.13;5073338;28;20047;-54
2021/11/16 13:40:54;;;;;;;9.80;2.60;;;;;;;14.94;100.00;100157.69;5072414;28;20119;-54
2021/11/16 13:44:10;;;;;;;2.58;1.20;;;;;;;14.91;100.00;100141.84;5072931;28;20683;-53
2021/11/16 13:47:23;;;;;;;7.63;1.95;;;;;;;14.91;100.00;100148.22;5072801;28;20116;-53
2021/11/16 13:50:31;;;;;;;6.93;1.13;;;;;;;14.90;100.00;100141.06;5072713;28;20557;-53
2021/11/16 13:53:34;;;;;;;6.32;1.20;;;;;;;14.86;100.00;100129.31;5072619;28;20040;-53
2021/11/16 13:56:37;;;;;;;3.40;0.60;;;;;;;14.81;100.00;100132.81;5073176;28;20430;-53
2021/11/16 13:59:41;;;;;;;1.35;0.77;;;;;;;14.83;100.00;100124.72;5092185;28;20043;-53
2021/11/16 14:02:52;;;;;;;2.80;0.43;;;;;;;14.90;100.00;100129.84;5074358;28;20042;-53
2021/11/16 14:05:58;;;;;;;2.13;0.32;;;;;;;14.94;100.00;100119.16;5072160;28;20106;-53
2021/11/16 14:09:22;;;;;;;4.22;0.47;;;;;;;14.97;100.00;100117.41;5072114;28;20063;-53
2021/11/16 14:12:25;;;;;;;4.78;0.90;;;;;;;14.94;100.00;100102.34;5075728;28;20051;-53
2021/11/16 14:15:28;;;;;;;0.95;0.45;;;;;;;14.93;100.00;100106.41;5072483;28;20078;-53
2021/11/16 14:18:32;;;;;;;1.05;0.45;;;;;;;14.87;100.00;100100.00;5072352;28;20051;-52
2021/11/16 14:21:38;;;;;;;1.65;1.02;;;;;;;14.79;100.00;100090.50;5078983;28;20079;-52
2021/11/16 14:24:41;;;;;;;0.55;0.13;;;;;;;14.73;100.00;100081.28;5072034;28;20487;-52
2021/11/16 14:27:45;;;;;;;2.05;0.57;;;;;;;14.72;100.00;100068.56;5072028;28;20081;-53
2021/11/16 14:30:52;;;;;;;2.78;0.65;;;;;;;14.67;100.00;100066.47;5071496;28;20086;-53
2021/11/16 14:33:59;;;;;;;1.48;0.60;;;;;;;14.61;100.00;100062.84;5070314;28;20152;-53
2021/11/16 14:37:03;;;;;;;1.00;0.70;;;;;;;14.57;100.00;100067.94;5072045;28;20072;-54